createdAt,value
2018-05-02T00:00:38.060Z,51.80
2018-05-02T00:03:04.386Z,52.30
2018-05-02T00:05:31.652Z,52.80
2018-05-02T00:07:58.152Z,52.30
2018-05-02T00:10:24.435Z,52.60
2018-05-02T00:12:50.804Z,52.70
2018-05-02T00:15:17.135Z,52.70
2018-05-02T00:17:43.531Z,52.70
2018-05-02T00:20:09.838Z,52.80
2018-05-02T00:22:36.098Z,52.90
2018-05-02T00:25:03.107Z,53.10
2018-05-02T00:27:29.447Z,53.10
2018-05-02T00:29:55.811Z,52.90
2018-05-02T00:32:22.125Z,52.60
2018-05-02T00:34:48.401Z,52.70
2018-05-02T00:37:14.869Z,53.10
2018-05-02T00:39:41.873Z,52.70
2018-05-02T00:42:08.146Z,52.70
2018-05-02T00:44:34.520Z,52.70
2018-05-02T00:47:00.829Z,52.60
2018-05-02T00:49:27.125Z,52.80
2018-05-02T00:51:54.263Z,53.50
2018-05-02T00:54:20.566Z,54.40
2018-05-02T00:56:46.834Z,54.40
2018-05-02T00:59:13.406Z,54.40
2018-05-02T01:01:40.146Z,53.80
2018-05-02T01:04:06.675Z,54.30
2018-05-02T01:06:32.937Z,54.30
2018-05-02T01:08:59.988Z,54.20
2018-05-02T01:11:26.269Z,54.20
2018-05-02T01:13:52.716Z,54.40
2018-05-02T01:16:18.980Z,54.80
2018-05-02T01:18:45.254Z,55.70
2018-05-02T01:21:12.625Z,55.00
2018-05-02T01:23:39.028Z,55.00
2018-05-02T01:26:05.398Z,54.60
2018-05-02T01:28:31.688Z,55.10
2018-05-02T01:30:58.026Z,55.30
2018-05-02T01:33:24.421Z,55.20
2018-05-02T01:35:50.767Z,55.20
2018-05-02T01:38:17.095Z,55.10
2018-05-02T01:40:43.422Z,55.10
2018-05-02T01:43:10.234Z,55.10
2018-05-02T01:45:36.772Z,55.60
2018-05-02T01:48:03.823Z,55.50
2018-05-02T01:50:32.066Z,55.30
2018-05-02T01:52:58.424Z,55.30
2018-05-02T01:55:24.895Z,55.10
2018-05-02T01:57:52.255Z,55.70
2018-05-02T02:00:18.638Z,55.20
2018-05-02T02:02:44.973Z,55.10
2018-05-02T02:05:11.415Z,55.10
2018-05-02T02:07:41.759Z,54.70
2018-05-02T02:10:08.340Z,54.60
2018-05-02T02:12:34.772Z,55.20
2018-05-02T02:15:02.268Z,56.20
2018-05-02T02:17:28.662Z,56.70
2018-05-02T02:22:27.047Z,56.50
2018-05-02T02:24:54.410Z,55.80
2018-05-02T02:27:20.707Z,55.90
2018-05-02T02:29:47.090Z,55.80
2018-05-02T02:32:13.353Z,56.20
2018-05-02T02:34:41.205Z,56.20
2018-05-02T02:37:07.678Z,56.60
2018-05-02T02:39:33.970Z,56.30
2018-05-02T02:42:00.334Z,56.10
2018-05-02T02:44:26.624Z,56.10
2018-05-02T02:46:53.707Z,56.50
2018-05-02T02:49:23.490Z,56.50
2018-05-02T02:51:49.768Z,56.60
2018-05-02T02:54:17.198Z,56.30
2018-05-02T02:56:43.503Z,56.40
2018-05-02T02:59:09.811Z,56.80
2018-05-02T03:04:24.002Z,56.60
2018-05-02T03:06:50.305Z,56.60
2018-05-02T03:09:16.474Z,57.20
2018-05-02T03:11:42.688Z,57.20
2018-05-02T03:14:09.448Z,56.90
2018-05-02T03:16:35.949Z,57.10
2018-05-02T03:19:02.953Z,56.80
2018-05-02T03:21:29.199Z,56.80
2018-05-02T03:23:55.450Z,56.80
2018-05-02T03:26:21.753Z,56.80
2018-05-02T03:28:49.131Z,56.80
2018-05-02T03:31:15.340Z,57.10
2018-05-02T03:33:41.597Z,57.40
2018-05-02T03:36:08.132Z,57.00
2018-05-02T03:38:34.540Z,57.20
2018-05-02T03:41:00.799Z,57.60
2018-05-02T03:43:27.065Z,57.10
2018-05-02T03:45:53.379Z,57.10
2018-05-02T03:48:19.639Z,57.30
2018-05-02T03:50:46.667Z,57.60
2018-05-02T03:53:12.899Z,57.60
2018-05-02T03:55:39.113Z,57.40
2018-05-02T03:58:05.327Z,57.50
2018-05-02T04:00:45.878Z,57.30
2018-05-02T04:03:24.548Z,57.10
2018-05-02T04:06:03.190Z,56.90
2018-05-02T04:08:30.263Z,57.10
2018-05-02T04:10:56.798Z,57.10
2018-05-02T04:13:23.094Z,57.20
2018-05-02T04:15:50.078Z,57.20
2018-05-02T04:18:17.259Z,57.10
2018-05-02T04:20:43.511Z,57.10
2018-05-02T04:23:09.767Z,57.20
2018-05-02T04:25:36.004Z,57.20
2018-05-02T04:28:03.354Z,57.10
2018-05-02T04:30:30.304Z,56.90
2018-05-02T04:32:57.294Z,56.80
2018-05-02T04:35:23.603Z,56.80
2018-05-02T04:37:50.583Z,56.80
2018-05-02T04:40:16.889Z,56.80
2018-05-02T04:42:46.368Z,56.60
2018-05-02T04:45:12.695Z,56.50
2018-05-02T04:47:38.977Z,56.60
2018-05-02T04:50:05.471Z,56.10
2018-05-02T04:52:31.775Z,55.70
2018-05-02T04:54:58.078Z,55.70
2018-05-02T04:57:24.348Z,55.80
2018-05-02T04:59:50.722Z,55.40
2018-05-02T05:02:16.987Z,55.20
2018-05-02T05:04:43.270Z,55.40
2018-05-02T05:07:09.503Z,55.40
2018-05-02T05:09:35.798Z,54.70
2018-05-02T05:12:02.080Z,54.80
2018-05-02T05:14:28.772Z,54.60
2018-05-02T05:16:55.030Z,54.20
2018-05-02T05:19:21.309Z,54.10
2018-05-02T05:21:50.836Z,53.70
2018-05-02T05:24:17.341Z,54.10
2018-05-02T05:26:48.492Z,53.50
2018-05-02T05:29:16.057Z,53.50
2018-05-02T05:31:44.062Z,52.70
2018-05-02T05:34:10.876Z,52.70
2018-05-02T05:36:37.419Z,52.40
2018-05-02T05:39:06.898Z,52.10
2018-05-02T05:41:33.313Z,51.20
2018-05-02T05:44:00.363Z,50.70
2018-05-02T05:46:26.657Z,50.70
2018-05-02T05:48:52.936Z,50.10
2018-05-02T05:51:19.171Z,49.50
2018-05-02T05:53:45.400Z,49.20
2018-05-02T05:56:11.799Z,49.10
2018-05-02T05:58:39.018Z,48.80
2018-05-02T06:01:07.217Z,48.80
2018-05-02T06:03:33.824Z,48.20
2018-05-02T06:06:01.664Z,48.40
2018-05-02T06:08:28.121Z,48.40
2018-05-02T06:10:54.400Z,48.30
2018-05-02T06:13:21.202Z,48.20
2018-05-02T06:15:47.538Z,47.90
2018-05-02T06:18:14.032Z,47.30
2018-05-02T06:20:41.433Z,47.30
2018-05-02T06:23:07.808Z,47.40
2018-05-02T06:25:34.237Z,47.40
2018-05-02T06:28:00.558Z,47.40
2018-05-02T06:30:26.918Z,47.60
2018-05-02T06:32:53.253Z,47.60
2018-05-02T06:35:19.601Z,46.60
2018-05-02T06:37:47.132Z,46.60
2018-05-02T06:40:13.647Z,46.60
2018-05-02T06:42:40.719Z,46.40
2018-05-02T06:45:06.998Z,46.40
2018-05-02T06:47:34.134Z,46.40
2018-05-02T06:50:00.597Z,45.30
2018-05-02T06:52:26.931Z,45.00
2018-05-02T06:54:53.323Z,44.10
2018-05-02T06:57:19.854Z,43.40
2018-05-02T06:59:47.474Z,43.30
2018-05-02T07:02:15.780Z,41.50
2018-05-02T07:04:42.301Z,41.40
2018-05-02T07:07:08.727Z,41.90
2018-05-02T07:09:35.348Z,41.40
2018-05-02T07:12:02.929Z,41.40
2018-05-02T07:14:29.289Z,41.20
2018-05-02T07:16:56.021Z,40.40
2018-05-02T07:19:22.378Z,40.30
2018-05-02T07:21:48.895Z,37.90
2018-05-02T07:24:15.408Z,39.20
2018-05-02T07:26:42.054Z,38.90
2018-05-02T07:29:08.620Z,38.80
2018-05-02T07:31:55.191Z,38.40
2018-05-02T07:34:21.443Z,37.80
2018-05-02T07:36:47.759Z,37.40
2018-05-02T07:39:14.042Z,37.20
2018-05-02T07:41:40.929Z,36.80
2018-05-02T07:44:18.996Z,36.40
2018-05-02T07:46:47.514Z,36.50
2018-05-02T07:49:14.965Z,35.80
2018-05-02T07:51:41.756Z,34.70
2018-05-02T07:54:11.906Z,35.00
2018-05-02T07:56:47.843Z,35.80
2018-05-02T07:59:14.695Z,35.80
2018-05-02T08:01:42.011Z,35.80
2018-05-02T08:04:08.802Z,35.90
2018-05-02T08:06:38.003Z,35.00
2018-05-02T08:11:43.525Z,34.40
2018-05-02T08:14:11.237Z,33.70
2018-05-02T08:16:42.790Z,33.40
2018-05-02T08:19:09.818Z,34.00
2018-05-02T08:21:40.384Z,33.30
2018-05-02T08:24:25.100Z,33.60
2018-05-02T08:26:55.072Z,33.20
2018-05-02T08:29:23.232Z,32.30
2018-05-02T08:31:54.499Z,31.00
2018-05-02T08:34:24.661Z,31.30
2018-05-02T08:36:53.841Z,30.40
2018-05-02T08:39:20.903Z,29.40
2018-05-02T08:41:55.020Z,29.40
2018-05-02T08:44:30.518Z,29.30
2018-05-02T08:46:56.916Z,30.20
2018-05-02T08:49:31.035Z,29.10
2018-05-02T08:52:01.426Z,29.50
2018-05-02T08:54:28.755Z,29.70
2018-05-02T08:56:57.250Z,29.30
2018-05-02T08:59:32.421Z,28.80
2018-05-02T09:01:59.188Z,28.70
2018-05-02T09:04:26.880Z,27.80
2018-05-02T09:06:57.013Z,27.90
2018-05-02T09:09:23.273Z,27.10
2018-05-02T09:11:49.503Z,28.80
2018-05-02T09:14:15.755Z,28.10
2018-05-02T09:16:42.792Z,27.60
2018-05-02T09:19:09.084Z,27.60
2018-05-02T09:21:35.341Z,27.10
2018-05-02T09:24:01.591Z,27.10
2018-05-02T09:26:27.829Z,27.10
2018-05-02T09:28:54.031Z,27.20
2018-05-02T09:31:20.591Z,26.40
2018-05-02T09:33:46.851Z,27.00
2018-05-02T09:36:13.148Z,27.00
2018-05-02T09:38:39.408Z,27.50
2018-05-02T09:41:05.650Z,26.60
2018-05-02T09:43:31.900Z,26.10
2018-05-02T09:45:58.195Z,25.20
2018-05-02T09:48:25.161Z,26.00
2018-05-02T09:50:51.683Z,26.00
2018-05-02T09:53:17.947Z,24.70
2018-05-02T09:55:46.195Z,25.40
2018-05-02T09:58:12.533Z,25.50
2018-05-02T10:00:50.630Z,26.10
2018-05-02T10:03:18.555Z,25.60
2018-05-02T10:05:45.118Z,24.70
2018-05-02T10:08:11.423Z,24.10
2018-05-02T10:10:37.791Z,23.80
2018-05-02T10:13:04.112Z,24.40
2018-05-02T10:15:30.343Z,24.70
2018-05-02T10:17:56.583Z,25.60
2018-05-02T10:20:22.830Z,24.50
2018-05-02T10:22:49.535Z,24.70
2018-05-02T10:25:15.788Z,24.00
2018-05-02T10:27:42.951Z,24.20
2018-05-02T10:30:09.661Z,24.20
2018-05-02T10:32:36.069Z,25.30
2018-05-02T10:35:02.305Z,24.50
2018-05-02T10:37:28.626Z,24.60
2018-05-02T10:39:55.649Z,22.80
2018-05-02T10:42:21.918Z,22.80
2018-05-02T10:44:48.190Z,23.40
2018-05-02T10:47:14.578Z,22.20
2018-05-02T10:49:40.842Z,20.00
2018-05-02T10:52:07.903Z,20.30
2018-05-02T10:54:34.919Z,20.30
2018-05-02T10:57:01.212Z,19.20
2018-05-02T10:59:27.426Z,20.80
2018-05-02T11:01:53.703Z,21.20
2018-05-02T11:04:20.679Z,19.80
2018-05-02T11:06:47.660Z,20.50
2018-05-02T11:09:13.936Z,20.50
2018-05-02T11:11:40.247Z,19.90
2018-05-02T11:14:06.543Z,19.80
2018-05-02T11:16:33.632Z,19.50
2018-05-02T11:18:59.960Z,19.50
2018-05-02T11:21:26.265Z,19.60
2018-05-02T11:23:52.649Z,18.90
2018-05-02T11:26:19.730Z,18.40
2018-05-02T11:28:46.078Z,18.30
2018-05-02T11:31:12.341Z,18.70
2018-05-02T11:33:38.617Z,18.00
2018-05-02T11:36:04.899Z,18.40
2018-05-02T11:38:31.176Z,18.80
2018-05-02T11:40:57.462Z,18.80
2018-05-02T11:43:24.548Z,18.70
2018-05-02T11:45:50.811Z,18.70
2018-05-02T11:48:17.024Z,18.80
2018-05-02T11:50:43.329Z,19.30
2018-05-02T11:53:10.371Z,18.50
2018-05-02T11:55:36.689Z,18.50
2018-05-02T11:58:03.082Z,19.00
2018-05-02T12:00:29.370Z,18.40
2018-05-02T12:02:55.932Z,18.30
2018-05-02T12:05:22.214Z,18.20
2018-05-02T12:07:48.564Z,17.30
2018-05-02T12:10:14.842Z,17.20
2018-05-02T12:12:41.266Z,16.70
2018-05-02T12:15:07.641Z,17.80
2018-05-02T12:17:33.903Z,16.50
2018-05-02T12:20:00.108Z,15.40
2018-05-02T12:22:27.949Z,15.70
2018-05-02T12:24:54.933Z,16.80
2018-05-02T12:27:21.385Z,16.70
2018-05-02T12:29:47.676Z,16.40
2018-05-02T12:32:13.973Z,16.50
2018-05-02T12:34:40.235Z,16.00
2018-05-02T12:37:06.600Z,15.90
2018-05-02T12:39:32.866Z,15.90
2018-05-02T12:41:59.074Z,14.80
2018-05-02T12:44:25.404Z,15.60
2018-05-02T12:46:51.679Z,16.20
2018-05-02T12:49:18.015Z,16.60
2018-05-02T12:51:44.391Z,15.20
2018-05-02T12:54:11.545Z,15.90
2018-05-02T12:56:37.787Z,15.90
2018-05-02T12:59:04.834Z,15.50
2018-05-02T13:01:31.870Z,16.00
2018-05-02T13:03:58.200Z,16.00
2018-05-02T13:06:24.530Z,15.60
2018-05-02T13:08:50.812Z,15.80
2018-05-02T13:11:17.851Z,16.20
2018-05-02T13:13:44.083Z,16.20
2018-05-02T13:16:10.411Z,14.80
2018-05-02T13:18:36.853Z,15.80
2018-05-02T13:21:03.958Z,14.90
2018-05-02T13:23:30.346Z,14.90
2018-05-02T13:25:56.535Z,14.50
2018-05-02T13:28:23.882Z,16.10
2018-05-02T13:30:50.267Z,16.60
2018-05-02T13:33:17.391Z,15.30
2018-05-02T13:35:43.802Z,15.30
2018-05-02T13:38:10.092Z,14.70
2018-05-02T13:40:36.367Z,14.90
2018-05-02T13:43:02.644Z,15.80
2018-05-02T13:45:29.038Z,15.80
2018-05-02T13:47:55.283Z,16.30
2018-05-02T13:50:21.605Z,14.70
2018-05-02T13:52:48.398Z,15.70
2018-05-02T13:55:14.732Z,14.90
2018-05-02T13:57:40.979Z,16.00
2018-05-02T14:00:07.224Z,15.20
2018-05-02T14:02:34.256Z,15.60
2018-05-02T14:05:00.487Z,15.50
2018-05-02T14:07:26.776Z,15.80
2018-05-02T14:09:53.275Z,15.50
2018-05-02T14:12:19.507Z,15.90
2018-05-02T14:14:45.853Z,15.00
2018-05-02T14:17:12.043Z,15.70
2018-05-02T14:19:38.281Z,16.20
2018-05-02T14:22:04.568Z,16.20
2018-05-02T14:24:30.884Z,17.50
2018-05-02T14:26:57.139Z,17.00
2018-05-02T14:29:23.444Z,17.00
2018-05-02T14:31:50.449Z,18.00
2018-05-02T14:34:16.704Z,18.00
2018-05-02T14:36:43.007Z,17.90
2018-05-02T14:39:09.281Z,17.10
2018-05-02T14:41:35.527Z,17.70
2018-05-02T14:44:01.811Z,16.30
2018-05-02T14:46:28.188Z,17.80
2018-05-02T14:48:54.593Z,17.60
2018-05-02T14:51:20.908Z,18.20
2018-05-02T14:53:47.148Z,18.10
2018-05-02T14:56:13.543Z,17.30
2018-05-02T14:58:39.793Z,18.00
2018-05-02T15:01:06.081Z,17.20
2018-05-02T15:03:33.385Z,17.20
2018-05-02T15:05:59.671Z,18.00
2018-05-02T15:08:26.081Z,17.80
2018-05-02T15:10:52.347Z,18.40
2018-05-02T15:13:18.762Z,19.30
2018-05-02T15:15:45.829Z,18.00
2018-05-02T15:18:12.870Z,18.30
2018-05-02T15:20:39.111Z,18.30
2018-05-02T15:23:05.327Z,18.70
2018-05-02T15:25:31.549Z,18.40
2018-05-02T15:27:57.801Z,18.20
2018-05-02T15:30:24.170Z,18.70
2018-05-02T15:32:51.242Z,19.40
2018-05-02T15:35:17.573Z,19.40
2018-05-02T15:37:43.943Z,19.60
2018-05-02T15:40:11.112Z,19.70
2018-05-02T15:42:37.587Z,19.70
2018-05-02T15:45:03.958Z,20.10
2018-05-02T15:47:30.264Z,19.70
2018-05-02T15:49:56.667Z,19.40
2018-05-02T15:52:22.947Z,19.90
2018-05-02T15:54:49.263Z,19.90
2018-05-02T15:57:15.578Z,20.20
2018-05-02T15:59:41.835Z,19.70
2018-05-02T16:02:08.160Z,20.00
2018-05-02T16:04:36.514Z,20.60
2018-05-02T16:07:02.848Z,21.70
2018-05-02T16:09:29.123Z,21.60
2018-05-02T16:11:55.402Z,20.80
2018-05-02T16:14:22.388Z,20.40
2018-05-02T16:16:48.638Z,20.40
2018-05-02T16:19:14.930Z,20.90
2018-05-02T16:21:41.177Z,20.70
2018-05-02T16:24:18.055Z,21.40
2018-05-02T16:26:44.653Z,21.40
2018-05-02T16:29:12.035Z,21.40
2018-05-02T16:31:38.347Z,21.40
2018-05-02T16:34:07.403Z,21.20
2018-05-02T16:36:34.725Z,21.20
2018-05-02T16:39:01.097Z,21.10
2018-05-02T16:41:27.371Z,21.60
2018-05-02T16:43:53.703Z,22.00
2018-05-02T16:46:20.004Z,22.00
2018-05-02T16:48:46.234Z,21.90
2018-05-02T16:51:13.327Z,21.20
2018-05-02T16:53:40.673Z,21.20
2018-05-02T16:56:06.911Z,21.90
2018-05-02T16:58:33.881Z,21.50
2018-05-02T17:01:00.143Z,21.40
2018-05-02T17:03:26.442Z,21.90
2018-05-02T17:05:53.616Z,21.30
2018-05-02T17:08:20.086Z,21.30
2018-05-02T17:10:46.424Z,22.10
2018-05-02T17:13:12.828Z,22.40
2018-05-02T17:15:40.335Z,21.60
2018-05-02T17:18:07.016Z,24.10
2018-05-02T17:20:35.568Z,21.60
2018-05-02T17:23:03.139Z,22.80
2018-05-02T17:25:30.879Z,24.50
2018-05-02T17:27:57.562Z,25.50
2018-05-02T17:30:26.074Z,25.90
2018-05-02T17:32:52.475Z,25.80
2018-05-02T17:35:21.246Z,26.20
2018-05-02T17:37:47.641Z,26.50
2018-05-02T17:40:17.566Z,26.10
2018-05-02T17:42:44.327Z,26.90
2018-05-02T17:45:10.695Z,27.10
2018-05-02T17:47:37.085Z,27.50
2018-05-02T17:50:03.823Z,27.50
2018-05-02T17:52:30.906Z,28.10
2018-05-02T17:54:57.339Z,28.10
2018-05-02T17:57:23.786Z,28.60
2018-05-02T17:59:50.427Z,28.60
2018-05-02T18:02:16.851Z,28.50
2018-05-02T18:04:43.363Z,28.30
2018-05-02T18:07:09.676Z,28.80
2018-05-02T18:09:36.076Z,28.50
2018-05-02T18:12:02.499Z,28.90
2018-05-02T18:14:29.210Z,28.30
2018-05-02T18:16:55.672Z,28.90
2018-05-02T18:19:22.309Z,30.00
2018-05-02T18:21:49.026Z,30.00
2018-05-02T18:24:15.583Z,30.30
2018-05-02T18:26:42.001Z,30.50
2018-05-02T18:29:09.235Z,31.20
2018-05-02T18:31:35.622Z,31.20
2018-05-02T18:34:02.244Z,31.70
2018-05-02T18:36:28.654Z,32.00
2018-05-02T18:38:55.715Z,32.10
2018-05-02T18:41:22.086Z,32.10
2018-05-02T18:43:48.370Z,32.50
2018-05-02T18:46:14.650Z,33.30
2018-05-02T18:48:40.928Z,33.40
2018-05-02T18:51:07.269Z,35.20
2018-05-02T18:53:33.506Z,34.70
2018-05-02T18:55:59.855Z,34.30
2018-05-02T18:58:26.093Z,34.60
2018-05-02T19:00:53.219Z,36.10
2018-05-02T19:03:28.706Z,36.00
2018-05-02T19:05:57.021Z,36.00
2018-05-02T19:08:23.720Z,36.80
2018-05-02T19:10:50.423Z,36.70
2018-05-02T19:13:18.995Z,36.80
2018-05-02T19:16:07.636Z,36.80
2018-05-02T19:21:39.646Z,37.50
2018-05-02T19:26:52.234Z,37.80
2018-05-02T19:29:28.263Z,38.10
2018-05-02T19:32:01.619Z,38.00
2018-05-02T19:34:28.599Z,38.20
2018-05-02T19:39:36.003Z,37.90
2018-05-02T19:42:08.264Z,38.70
2018-05-02T19:44:35.277Z,38.70
2018-05-02T19:47:01.650Z,39.10
2018-05-02T19:49:28.214Z,39.50
2018-05-02T19:52:00.433Z,39.70
2018-05-02T19:54:26.764Z,40.00
2018-05-02T19:56:57.705Z,39.90
2018-05-02T19:59:24.104Z,40.00
2018-05-02T20:01:56.544Z,40.50
2018-05-02T20:04:22.920Z,40.60
2018-05-02T20:06:49.237Z,41.00
2018-05-02T20:09:21.651Z,41.70
2018-05-02T20:11:54.027Z,41.40
2018-05-02T20:14:20.446Z,41.70
2018-05-02T20:16:47.000Z,42.40
2018-05-02T20:19:13.385Z,41.90
2018-05-02T20:21:46.800Z,42.00
2018-05-02T20:26:55.219Z,43.00
2018-05-02T20:29:27.078Z,42.60
2018-05-02T20:31:57.744Z,43.10
2018-05-02T20:34:28.669Z,43.50
2018-05-02T20:37:02.299Z,44.00
2018-05-02T20:39:30.189Z,45.00
2018-05-02T20:41:58.371Z,45.40
2018-05-02T20:44:25.481Z,45.40
2018-05-02T20:46:51.947Z,45.40
2018-05-02T20:49:18.598Z,45.40
2018-05-02T20:51:44.893Z,45.50
2018-05-02T20:54:11.215Z,45.90
2018-05-02T20:56:37.448Z,46.10
2018-05-02T20:59:03.835Z,46.80
2018-05-02T21:01:30.814Z,46.90
2018-05-02T21:03:57.109Z,46.90
2018-05-02T21:06:23.912Z,47.10
2018-05-02T21:08:54.376Z,46.90
2018-05-02T21:11:20.940Z,46.70
2018-05-02T21:13:47.415Z,47.40
2018-05-02T21:16:13.719Z,48.10
2018-05-02T21:18:41.528Z,48.10
2018-05-02T21:21:07.839Z,47.80
2018-05-02T21:23:34.229Z,47.50
2018-05-02T21:26:00.462Z,47.90
2018-05-02T21:28:26.737Z,48.70
2018-05-02T21:30:52.983Z,49.10
2018-05-02T21:33:19.253Z,49.50
2018-05-02T21:35:45.435Z,49.60
2018-05-02T21:38:15.362Z,50.00
2018-05-02T21:40:44.295Z,49.90
2018-05-02T21:43:10.969Z,49.70
2018-05-02T21:45:37.561Z,49.60
2018-05-02T21:48:04.565Z,48.80
2018-05-02T21:50:30.818Z,48.80
2018-05-02T21:52:57.259Z,48.30
2018-05-02T21:55:24.314Z,47.70
2018-05-02T21:57:51.045Z,47.30
2018-05-02T22:03:11.280Z,47.50
2018-05-02T22:05:37.623Z,47.20
2018-05-02T22:08:03.995Z,47.70
2018-05-02T22:10:30.368Z,47.80
2018-05-02T22:12:57.148Z,47.90
2018-05-02T22:15:23.387Z,47.90
2018-05-02T22:17:49.728Z,47.70
2018-05-02T22:20:17.104Z,47.80
2018-05-02T22:22:43.439Z,47.80
2018-05-02T22:25:09.754Z,48.10
2018-05-02T22:27:36.138Z,47.70
2018-05-02T22:30:02.410Z,47.80
2018-05-02T22:32:28.835Z,48.00
2018-05-02T22:34:55.341Z,48.10
2018-05-02T22:37:22.460Z,48.00
2018-05-02T22:39:49.301Z,48.00
2018-05-02T22:42:15.828Z,47.80
2018-05-02T22:44:42.302Z,47.80
2018-05-02T22:47:28.486Z,48.20
2018-05-02T22:56:00.898Z,49.30
2018-05-02T23:07:30.632Z,48.40
2018-05-02T23:10:16.900Z,48.50
2018-05-02T23:13:00.417Z,49.00
2018-05-02T23:15:28.939Z,49.20
2018-05-02T23:17:58.727Z,49.70
2018-05-02T23:20:27.821Z,49.90
2018-05-02T23:23:01.867Z,50.00
2018-05-02T23:28:02.515Z,51.00
2018-05-02T23:30:29.170Z,51.20
2018-05-02T23:33:01.406Z,51.60
2018-05-02T23:35:29.169Z,52.50
2018-05-02T23:38:03.202Z,52.00
2018-05-02T23:40:32.841Z,52.60
2018-05-02T23:43:00.419Z,52.40
2018-05-02T23:48:29.517Z,51.60
2018-05-02T23:53:58.937Z,53.00
2018-05-02T23:56:25.235Z,53.90
2018-05-02T23:58:58.658Z,54.70
